Time;durP1;ratioP1;P1;durP2;ratioP2;P2;SDS_P1;SDS_P2;PMS_P1;PMS_P2;Temp;Humidity;BMP_temperature;BMP_pressure;BME280_temperature;BME280_humidity;BME280_pressure;Samples;Min_cycle;Max_cycle;Signal;HPM_P1;HPM_P2
2022/06/09 00:01:35;;;;;;;7.07;4.28;;;;;;;14.47;100.00;156156.44;4911817;29;20048;-82
2022/06/09 00:04:17;;;;;;;6.13;3.88;;;;;;;14.39;100.00;156138.41;4932868;29;20039;-82
2022/06/09 00:06:51;;;;;;;5.10;3.38;;;;;;;14.36;100.00;156129.41;4920681;28;20043;-81
2022/06/09 00:09:20;;;;;;;4.72;3.47;;;;;;;14.34;100.00;156124.28;4929234;28;20037;-82
2022/06/09 00:11:49;;;;;;;8.73;3.58;;;;;;;14.34;100.00;156125.56;4954701;28;20546;-81
2022/06/09 00:14:15;;;;;;;6.28;3.65;;;;;;;14.35;100.00;156126.81;4934015;28;20031;-81
2022/06/09 00:16:41;;;;;;;6.82;3.60;;;;;;;14.43;100.00;156146.13;4945141;28;20039;-84
2022/06/09 00:19:07;;;;;;;8.13;3.85;;;;;;;14.47;100.00;156157.72;4939831;29;20806;-86
2022/06/09 00:21:34;;;;;;;7.15;4.13;;;;;;;14.51;100.00;156166.72;4940728;29;20118;-82
2022/06/09 00:24:00;;;;;;;8.80;4.45;;;;;;;14.42;100.00;156144.84;4941278;28;20038;-78
2022/06/09 00:26:26;;;;;;;6.97;3.80;;;;;;;14.39;100.00;156138.41;4935746;29;20094;-82
2022/06/09 00:28:51;;;;;;;9.68;3.58;;;;;;;14.33;100.00;156122.97;4924896;29;20047;-84
2022/06/09 00:31:17;;;;;;;7.45;3.78;;;;;;;14.25;100.00;156102.41;4923158;29;20039;-81
2022/06/09 00:33:43;;;;;;;4.40;3.40;;;;;;;14.32;100.00;156119.13;4906329;28;20042;-83
2022/06/09 00:36:08;;;;;;;6.32;3.90;;;;;;;14.39;100.00;156138.41;4923934;28;20042;-83
2022/06/09 00:38:34;;;;;;;7.47;4.53;;;;;;;14.33;100.00;156121.69;4930216;29;20066;-83
2022/06/09 00:41:02;;;;;;;7.93;4.03;;;;;;;14.49;100.00;156162.84;4947953;28;20038;-82
2022/06/09 00:43:28;;;;;;;6.25;4.30;;;;;;;14.55;100.00;156177.00;4913756;29;20044;-83
2022/06/09 00:46:12;;;;;;;8.05;3.92;;;;;;;14.55;100.00;156177.00;4939556;28;20047;-81
2022/06/09 00:48:48;;;;;;;5.88;4.03;;;;;;;14.54;100.00;156174.41;4940743;29;20047;-79
2022/06/09 00:51:21;;;;;;;8.88;4.18;;;;;;;14.51;100.00;156166.72;4936134;28;20043;-82
2022/06/09 00:53:48;;;;;;;;;;;;;;;14.53;100.00;156173.13;4928936;28;20043;-81
2022/06/09 00:56:15;;;;;;;8.15;5.03;;;;;;;14.52;100.00;156170.59;4955132;28;19914;-79
2022/06/09 00:58:44;;;;;;;11.90;5.60;;;;;;;14.50;100.00;156165.41;4939834;29;20035;-82
2022/06/09 01:01:13;;;;;;;7.47;5.30;;;;;;;14.48;100.00;156160.25;4910102;28;20082;-81
2022/06/09 01:03:59;;;;;;;8.20;5.68;;;;;;;14.41;100.00;156143.56;4949219;28;20141;-83
2022/06/09 01:06:29;;;;;;;12.73;6.13;;;;;;;14.38;100.00;156134.56;4945919;29;20066;-82
2022/06/09 01:09:09;;;;;;;11.27;6.70;;;;;;;14.34;100.00;156124.28;4945417;28;20050;-82
2022/06/09 01:11:35;;;;;;;7.03;6.35;;;;;;;14.25;100.00;156102.41;4941739;29;20039;-81
2022/06/09 01:14:01;;;;;;;8.93;6.53;;;;;;;14.19;100.00;156086.97;4943035;28;20034;-79
2022/06/09 01:16:49;;;;;;;7.57;6.18;;;;;;;14.17;100.00;156081.84;4946292;29;20669;-85
2022/06/09 01:19:45;;;;;;;7.95;6.25;;;;;;;14.15;100.00;156076.72;4912334;29;20038;-81
2022/06/09 01:22:29;;;;;;;10.40;6.53;;;;;;;14.10;100.00;156065.09;4917514;29;20120;-82
2022/06/09 01:25:22;;;;;;;7.47;6.10;;;;;;;14.11;100.00;156067.69;4931224;29;20035;-82
2022/06/09 01:28:02;;;;;;;;;;;;;;;14.15;100.00;156077.97;4930561;29;20758;-85
2022/06/09 01:30:51;;;;;;;9.98;6.70;;;;;;;14.12;100.00;156068.97;4931161;29;19924;-82
2022/06/09 01:33:37;;;;;;;10.07;6.22;;;;;;;14.09;100.00;156061.25;4912153;29;20038;-82
2022/06/09 01:36:13;;;;;;;8.15;6.13;;;;;;;14.08;100.00;156059.97;4918105;29;20043;-79
2022/06/09 01:38:57;;;;;;;9.90;6.47;;;;;;;14.05;100.00;156052.25;4946721;29;20071;-79
2022/06/09 01:41:24;;;;;;;8.20;6.68;;;;;;;14.09;100.00;156061.25;4902492;29;20039;-81
2022/06/09 01:43:53;;;;;;;9.73;6.57;;;;;;;14.12;100.00;156070.25;4952050;28;20107;-80
2022/06/09 01:46:30;;;;;;;9.68;6.80;;;;;;;14.14;100.00;156075.38;4921386;29;20047;-81
2022/06/09 01:49:00;;;;;;;12.25;6.95;;;;;;;14.09;100.00;156062.56;4953817;28;20044;-82
2022/06/09 01:51:29;;;;;;;8.90;7.80;;;;;;;14.16;100.00;156080.53;4945469;29;20066;-80
2022/06/09 01:54:00;;;;;;;10.98;7.45;;;;;;;14.18;100.00;156085.72;4942295;28;20104;-80
2022/06/09 01:56:43;;;;;;;10.75;7.13;;;;;;;14.12;100.00;156068.97;4947346;29;20490;-80
2022/06/09 01:59:17;;;;;;;10.35;7.50;;;;;;;14.00;100.00;156039.41;4939411;29;20055;-80
2022/06/09 02:01:48;;;;;;;8.60;6.93;;;;;;;13.97;100.00;156031.69;4933229;29;20032;-79
2022/06/09 02:04:20;;;;;;;8.63;6.40;;;;;;;13.85;100.00;156000.84;4923079;29;20027;-80
2022/06/09 02:06:47;;;;;;;10.50;6.95;;;;;;;13.71;100.00;155967.44;4960078;28;20062;-82
2022/06/09 02:09:13;;;;;;;8.05;6.72;;;;;;;13.59;100.00;155936.56;4943027;28;20026;-79
2022/06/09 02:11:51;;;;;;;7.80;6.55;;;;;;;13.50;100.00;155913.41;4918550;28;20039;-81
2022/06/09 02:14:19;;;;;;;6.78;5.93;;;;;;;13.46;100.00;155903.16;4932225;29;20024;-79
2022/06/09 02:16:45;;;;;;;7.25;5.93;;;;;;;13.38;100.00;155883.88;4955258;29;20031;-79
2022/06/09 02:19:11;;;;;;;8.65;6.13;;;;;;;13.47;100.00;155907.00;4946830;29;20050;-80
2022/06/09 02:21:38;;;;;;;7.97;6.40;;;;;;;13.50;100.00;155914.69;4923484;29;20070;-79
2022/06/09 02:24:04;;;;;;;13.60;7.40;;;;;;;13.42;100.00;155895.41;4947459;28;20027;-81
2022/06/09 02:26:30;;;;;;;10.02;7.50;;;;;;;13.43;100.00;155896.75;4950196;29;20055;-80
2022/06/09 02:28:56;;;;;;;6.75;6.15;;;;;;;13.31;100.00;155867.16;4943806;28;20039;-81
2022/06/09 02:31:23;;;;;;;9.82;6.70;;;;;;;13.28;100.00;155858.09;4948262;29;20039;-82
2022/06/09 02:33:50;;;;;;;12.45;7.00;;;;;;;13.24;100.00;155849.09;4922621;28;20040;-80
2022/06/09 02:36:16;;;;;;;7.38;6.15;;;;;;;13.18;100.00;155834.97;4967132;28;20153;-80
2022/06/09 02:38:42;;;;;;;9.18;6.63;;;;;;;13.16;100.00;155828.56;4942763;28;20038;-78
2022/06/09 02:41:08;;;;;;;8.52;6.30;;;;;;;13.13;100.00;155820.81;4936079;29;20043;-80
2022/06/09 02:43:34;;;;;;;8.95;6.97;;;;;;;13.07;100.00;155806.69;4952215;29;20035;-80
2022/06/09 02:46:01;;;;;;;10.35;7.32;;;;;;;13.25;100.00;155852.97;4952777;28;20042;-81
2022/06/09 02:48:27;;;;;;;9.25;7.50;;;;;;;13.28;100.00;155858.09;4946903;28;20039;-81
2022/06/09 02:50:53;;;;;;;13.10;7.85;;;;;;;13.27;100.00;155855.56;4957507;28;20048;-78
2022/06/09 02:53:21;;;;;;;12.27;7.80;;;;;;;13.35;100.00;155877.41;4950706;28;20058;-81
2022/06/09 02:55:47;;;;;;;12.63;7.72;;;;;;;13.33;100.00;155872.28;4939640;29;20044;-80
2022/06/09 02:58:13;;;;;;;11.07;7.78;;;;;;;13.32;100.00;155869.75;4946370;28;20113;-79
2022/06/09 03:00:42;;;;;;;10.80;7.35;;;;;;;13.33;100.00;155872.28;4952364;29;20497;-81
2022/06/09 03:03:12;;;;;;;11.23;7.20;;;;;;;13.40;100.00;155889.00;4945569;29;20191;-80
2022/06/09 03:05:38;;;;;;;11.25;6.90;;;;;;;13.39;100.00;155887.75;4930258;29;20039;-82
2022/06/09 03:08:09;;;;;;;11.63;7.10;;;;;;;13.44;100.00;155900.56;4951539;28;20038;-81
2022/06/09 03:10:36;;;;;;;12.55;6.63;;;;;;;13.37;100.00;155881.28;4926986;29;20043;-79
2022/06/09 03:13:02;;;;;;;11.77;6.82;;;;;;;13.41;100.00;155892.88;4946729;28;20697;-77
2022/06/09 03:15:29;;;;;;;11.18;6.45;;;;;;;13.39;100.00;155886.41;4941706;29;20046;-80
2022/06/09 03:17:54;;;;;;;10.02;6.18;;;;;;;13.25;100.00;155852.97;4943082;29;20040;-81
2022/06/09 03:20:26;;;;;;;9.73;6.57;;;;;;;13.41;100.00;155892.88;4966499;28;20043;-79
2022/06/09 03:22:53;;;;;;;9.18;6.50;;;;;;;13.27;100.00;155855.56;4947102;28;20099;-80
2022/06/09 03:25:19;;;;;;;9.73;6.30;;;;;;;13.38;100.00;155885.16;4937620;29;20054;-80
2022/06/09 03:27:47;;;;;;;8.95;5.97;;;;;;;13.31;100.00;155867.16;4932123;28;20057;-80
2022/06/09 03:30:13;;;;;;;8.43;5.85;;;;;;;13.38;100.00;155885.16;4926661;29;20530;-80
2022/06/09 03:32:39;;;;;;;10.07;5.90;;;;;;;13.30;100.00;155864.59;4928354;29;20048;-80
2022/06/09 03:35:06;;;;;;;7.68;5.60;;;;;;;13.27;100.00;155856.81;4956116;28;20133;-82
2022/06/09 03:37:32;;;;;;;8.48;5.43;;;;;;;13.20;100.00;155840.16;4949377;29;20066;-82
2022/06/09 03:39:58;;;;;;;8.35;5.22;;;;;;;13.09;100.00;155810.56;4926324;28;20039;-80
2022/06/09 03:42:24;;;;;;;7.88;6.05;;;;;;;13.08;100.00;155808.00;4916782;28;20133;-79
2022/06/09 03:44:50;;;;;;;9.45;6.40;;;;;;;13.16;100.00;155829.81;4940039;29;20395;-82
2022/06/09 03:47:15;;;;;;;14.65;5.90;;;;;;;13.14;100.00;155823.41;4952050;29;20039;-81
2022/06/09 03:49:41;;;;;;;8.20;6.00;;;;;;;13.20;100.00;155838.81;4922317;29;20047;-79
2022/06/09 03:52:08;;;;;;;6.75;6.00;;;;;;;13.13;100.00;155822.16;4944334;29;20114;-80
2022/06/09 03:54:33;;;;;;;18.08;6.80;;;;;;;13.17;100.00;155831.16;4937265;29;20035;-80
2022/06/09 03:56:59;;;;;;;8.02;6.75;;;;;;;13.22;100.00;155845.28;4945564;29;20075;-79
2022/06/09 03:59:25;;;;;;;9.82;6.88;;;;;;;13.37;100.00;155881.28;4944672;29;20059;-81
2022/06/09 04:01:50;;;;;;;9.15;6.47;;;;;;;13.22;100.00;155845.28;4933459;28;20039;-81
2022/06/09 04:04:16;;;;;;;8.85;6.63;;;;;;;13.37;100.00;155881.28;4939379;29;20039;-82
2022/06/09 04:06:42;;;;;;;7.93;6.50;;;;;;;13.46;100.00;155904.44;4967891;28;20070;-81
2022/06/09 04:09:08;;;;;;;9.02;6.43;;;;;;;13.44;100.00;155900.56;4941645;29;20044;-81
2022/06/09 04:11:34;;;;;;;8.80;7.10;;;;;;;13.50;100.00;155914.69;4954847;29;20057;-81
2022/06/09 04:14:00;;;;;;;11.32;7.57;;;;;;;13.52;100.00;155918.56;4946628;29;20134;-82
2022/06/09 04:16:30;;;;;;;12.13;7.10;;;;;;;13.47;100.00;155905.69;4955095;29;20039;-81
2022/06/09 04:18:59;;;;;;;9.85;7.95;;;;;;;13.55;100.00;155927.56;4969524;28;20042;-80
2022/06/09 04:21:27;;;;;;;11.80;8.80;;;;;;;13.62;100.00;155945.56;4951916;28;20043;-81
2022/06/09 04:23:54;;;;;;;11.05;7.97;;;;;;;13.60;100.00;155939.16;4951578;28;20046;-83
2022/06/09 04:26:23;;;;;;;13.07;8.82;;;;;;;13.61;100.00;155942.97;4941454;29;20071;-82
2022/06/09 04:28:50;;;;;;;11.30;8.75;;;;;;;13.62;100.00;155945.56;4944012;29;20046;-83
2022/06/09 04:31:16;;;;;;;15.18;9.63;;;;;;;13.72;100.00;155968.72;4939112;29;20038;-82
2022/06/09 04:33:44;;;;;;;13.75;8.60;;;;;;;13.65;100.00;155951.97;4941308;29;20032;-82
2022/06/09 04:36:11;;;;;;;9.90;8.88;;;;;;;13.76;100.00;155980.25;4942996;29;20070;-82
2022/06/09 04:38:37;;;;;;;13.48;9.57;;;;;;;13.86;100.00;156004.66;4934267;29;20031;-81
2022/06/09 04:41:09;;;;;;;11.50;9.65;;;;;;;13.88;100.00;156009.84;4957708;28;20027;-82
2022/06/09 04:43:39;;;;;;;17.05;10.48;;;;;;;13.88;100.00;156008.53;4959942;28;20122;-82
2022/06/09 04:46:06;;;;;;;14.75;10.57;;;;;;;13.83;100.00;155997.00;4930741;28;20038;-81
2022/06/09 04:48:34;;;;;;;17.42;11.82;;;;;;;13.85;100.00;156000.84;4933054;29;20035;-81
2022/06/09 04:51:00;;;;;;;14.50;11.45;;;;;;;13.83;100.00;155997.00;4941000;28;20043;-81
2022/06/09 04:53:26;;;;;;;16.73;12.90;;;;;;;13.84;100.00;155999.53;4949137;29;20058;-80
2022/06/09 04:55:52;;;;;;;20.35;14.00;;;;;;;13.82;100.00;155994.41;4949244;29;20066;-80
2022/06/09 04:58:17;;;;;;;18.25;13.60;;;;;;;13.81;100.00;155993.13;4960457;28;20042;-80
2022/06/09 05:00:43;;;;;;;20.25;13.93;;;;;;;13.87;100.00;156006.00;4936511;28;20159;-80
2022/06/09 05:03:11;;;;;;;22.15;15.27;;;;;;;13.90;100.00;156015.00;4945007;28;20053;-83
2022/06/09 05:05:40;;;;;;;21.63;14.82;;;;;;;13.85;100.00;156002.13;4961157;28;20413;-83
2022/06/09 05:08:06;;;;;;;20.85;15.05;;;;;;;13.98;100.00;156035.56;4945241;28;20058;-80
2022/06/09 05:10:33;;;;;;;23.27;15.77;;;;;;;13.96;100.00;156029.13;4944709;29;20031;-78
2022/06/09 05:12:59;;;;;;;20.52;14.73;;;;;;;14.07;100.00;156056.09;4954783;28;20034;-80
2022/06/09 05:15:25;;;;;;;23.63;16.98;;;;;;;13.97;100.00;156031.69;4934422;29;20129;-80
2022/06/09 05:17:52;;;;;;;26.08;16.30;;;;;;;14.07;100.00;156057.41;4932327;28;20558;-80
2022/06/09 05:20:22;;;;;;;22.45;17.02;;;;;;;14.10;100.00;156065.09;4961937;28;20075;-82
2022/06/09 05:22:48;;;;;;;29.30;17.65;;;;;;;14.20;100.00;156089.53;4936262;29;20059;-79
2022/06/09 05:25:16;;;;;;;22.35;16.65;;;;;;;14.19;100.00;156088.25;4940698;29;20038;-82
2022/06/09 05:27:43;;;;;;;26.40;18.30;;;;;;;14.24;100.00;156099.84;4948096;29;20070;-81
2022/06/09 05:30:14;;;;;;;28.63;20.15;;;;;;;14.25;100.00;156101.13;4961757;28;20038;-82
2022/06/09 05:32:39;;;;;;;30.92;20.15;;;;;;;14.28;100.00;156110.13;4947667;28;20038;-82
2022/06/09 05:35:06;;;;;;;28.45;18.55;;;;;;;14.33;100.00;156122.97;4948953;28;20035;-82
2022/06/09 05:44:50;;;;;;;28.52;18.70;;;;;;;14.39;100.00;156137.09;4941876;29;20039;-82
2022/06/09 05:45:47;;;;;;;31.63;20.90;;;;;;;14.27;100.00;156106.28;4949129;28;20043;-82
2022/06/09 05:48:12;;;;;;;32.10;20.08;;;;;;;14.31;100.00;156117.81;4940068;29;20031;-82
2022/06/09 05:50:38;;;;;;;30.63;20.27;;;;;;;14.40;100.00;156139.69;4935943;29;20048;-80
2022/06/09 05:53:04;;;;;;;29.85;20.23;;;;;;;14.31;100.00;156116.53;4956244;28;20091;-80
2022/06/09 05:55:30;;;;;;;23.27;17.98;;;;;;;14.32;100.00;156120.41;4923979;29;20059;-82
2022/06/09 05:57:56;;;;;;;31.40;20.02;;;;;;;14.34;100.00;156125.56;4953353;28;20046;-81
2022/06/09 06:00:22;;;;;;;27.75;17.65;;;;;;;14.34;100.00;156124.28;4934991;29;20069;-84
2022/06/09 06:02:48;;;;;;;31.52;20.02;;;;;;;14.41;100.00;156143.56;4941150;28;20039;-75
2022/06/09 06:07:58;;;;;;;28.58;21.83;;;;;;;14.65;100.00;156201.47;4941581;28;20043;-83
2022/06/09 06:10:24;;;;;;;30.65;21.05;;;;;;;14.78;100.00;156236.19;4937265;29;20106;-83
2022/06/09 06:12:50;;;;;;;31.67;21.92;;;;;;;15.00;100.00;156290.25;4939616;28;20044;-80
2022/06/09 06:15:15;;;;;;;37.47;22.50;;;;;;;15.21;100.00;156342.97;4946809;29;20050;-84
2022/06/09 06:17:41;;;;;;;38.42;22.45;;;;;;;15.33;100.00;156373.88;4951703;29;20039;-84
2022/06/09 06:20:07;;;;;;;31.33;20.92;;;;;;;15.52;100.00;156421.50;4952081;29;20059;-83
2022/06/09 06:22:33;;;;;;;28.00;19.55;;;;;;;15.76;100.00;156482.03;4935551;29;20494;-83
2022/06/09 06:24:59;;;;;;;29.45;17.85;;;;;;;15.92;100.00;156520.63;4934168;28;20077;-83
2022/06/09 06:27:26;;;;;;;25.60;16.38;;;;;;;16.17;100.00;156583.69;4951701;29;20043;-82
2022/06/09 06:29:51;;;;;;;21.70;15.18;;;;;;;16.18;100.00;156586.28;4936624;28;20031;-82
2022/06/09 06:32:17;;;;;;;23.15;16.05;;;;;;;16.16;100.00;156581.09;4947164;29;20568;-83
2022/06/09 06:34:43;;;;;;;21.48;14.20;;;;;;;16.11;100.00;156568.25;4931838;28;20138;-81
2022/06/09 06:37:09;;;;;;;19.60;13.60;;;;;;;16.01;100.00;156542.47;4941300;29;20039;-85
2022/06/09 06:39:34;;;;;;;20.60;14.02;;;;;;;16.12;100.00;156570.81;4949897;29;20055;-84
2022/06/09 06:42:00;;;;;;;20.20;15.23;;;;;;;16.14;100.00;156575.94;4949877;29;20044;-83
2022/06/09 06:44:34;;;;;;;25.50;16.02;;;;;;;16.13;100.00;156573.41;4962993;28;20066;-82
2022/06/09 06:46:59;;;;;;;22.92;13.13;;;;;;;16.23;100.00;156597.84;4949909;28;20509;-82
2022/06/09 06:49:25;;;;;;;17.63;11.80;;;;;;;16.32;100.00;156622.31;4948486;29;20066;-84
2022/06/09 06:51:50;;;;;;;18.25;11.35;;;;;;;16.30;100.00;156617.16;4952425;28;20035;-83
2022/06/09 06:54:16;;;;;;;14.38;10.93;;;;;;;16.29;100.00;156614.59;4942092;29;20039;-83
2022/06/09 06:56:42;;;;;;;20.52;11.88;;;;;;;16.16;100.00;156581.09;4942332;29;20123;-83
2022/06/09 06:59:07;;;;;;;16.13;11.63;;;;;;;16.12;100.00;156570.81;4933832;28;20070;-83
2022/06/09 07:01:34;;;;;;;16.73;10.90;;;;;;;15.91;100.00;156519.31;4961698;28;20035;-84
2022/06/09 07:04:00;;;;;;;14.30;10.75;;;;;;;15.89;100.00;156514.16;4947666;28;20130;-84
2022/06/09 07:06:26;;;;;;;15.88;10.85;;;;;;;16.00;100.00;156539.94;4945912;29;20111;-84
2022/06/09 07:08:52;;;;;;;16.35;11.10;;;;;;;15.79;100.00;156487.16;4950010;28;20038;-84
2022/06/09 07:11:18;;;;;;;14.45;10.88;;;;;;;15.77;100.00;156483.31;4951973;29;20039;-83
2022/06/09 07:13:43;;;;;;;14.32;10.70;;;;;;;15.70;100.00;156466.50;4950621;29;20380;-82
2022/06/09 07:16:12;;;;;;;17.20;11.00;;;;;;;15.67;100.00;156457.47;4941845;29;20039;-82
2022/06/09 07:18:38;;;;;;;16.98;11.00;;;;;;;15.75;100.00;156478.16;4963654;28;20576;-83
2022/06/09 07:21:05;;;;;;;14.27;9.75;;;;;;;15.87;100.00;156507.75;4933529;28;20051;-81
2022/06/09 07:23:31;;;;;;;14.35;9.20;;;;;;;16.04;100.00;156550.22;4957792;29;20034;-82
2022/06/09 07:25:58;;;;;;;11.85;8.63;;;;;;;16.15;100.00;156579.81;4956056;28;20047;-83
2022/06/09 07:28:25;;;;;;;12.80;8.98;;;;;;;16.16;100.00;156581.09;4957902;29;20035;-82
2022/06/09 07:30:56;;;;;;;13.93;9.30;;;;;;;16.12;100.00;156572.13;4952577;28;20046;-83
2022/06/09 07:33:25;;;;;;;14.80;8.75;;;;;;;16.06;100.00;156556.66;4944228;29;20043;-82
2022/06/09 07:35:53;;;;;;;10.60;8.25;;;;;;;16.07;100.00;156557.97;4957058;28;20047;-82
2022/06/09 07:38:19;;;;;;;10.75;8.20;;;;;;;16.17;100.00;156582.41;4930564;29;20043;-83
2022/06/09 07:40:45;;;;;;;14.60;8.40;;;;;;;16.18;100.00;156586.28;4932728;28;20082;-83
2022/06/09 07:43:13;;;;;;;13.55;9.07;;;;;;;16.26;100.00;156605.59;4968167;28;20031;-81
2022/06/09 07:45:39;;;;;;;12.38;8.02;;;;;;;16.08;100.00;156561.78;4938995;29;20054;-82
2022/06/09 07:48:06;;;;;;;13.32;8.55;;;;;;;15.96;100.00;156530.91;4940058;29;20042;-80
2022/06/09 07:50:33;;;;;;;11.15;8.50;;;;;;;15.87;100.00;156509.03;4939284;29;20062;-83
2022/06/09 07:53:00;;;;;;;12.48;8.57;;;;;;;15.86;100.00;156505.16;4935519;28;20035;-83
2022/06/09 07:55:26;;;;;;;13.55;8.75;;;;;;;15.71;100.00;156469.09;4951267;29;20138;-82
2022/06/09 07:57:53;;;;;;;15.60;9.35;;;;;;;15.74;100.00;156476.84;4931275;28;20040;-83
2022/06/09 08:00:21;;;;;;;18.40;10.27;;;;;;;15.59;100.00;156438.19;4929003;29;20090;-81
2022/06/09 08:02:48;;;;;;;15.52;10.00;;;;;;;15.81;100.00;156493.59;4941086;28;20494;-78
2022/06/09 08:05:17;;;;;;;16.17;9.40;;;;;;;15.93;100.00;156524.44;4953664;28;20110;-82
2022/06/09 08:07:44;;;;;;;14.23;9.82;;;;;;;16.15;100.00;156579.81;4948170;28;20019;-81
2022/06/09 08:10:14;;;;;;;15.98;8.65;;;;;;;16.25;100.00;156604.28;4936607;28;20039;-81
2022/06/09 08:12:39;;;;;;;21.55;10.10;;;;;;;16.47;100.00;156659.66;4949729;28;20039;-81
2022/06/09 08:15:06;;;;;;;16.65;10.15;;;;;;;16.56;100.00;156681.56;4933129;28;20054;-81
2022/06/09 08:17:31;;;;;;;17.83;9.75;;;;;;;16.43;100.00;156648.06;4935166;28;20049;-80
2022/06/09 08:19:57;;;;;;;15.27;10.20;;;;;;;16.52;100.00;156671.25;4948548;28;20038;-83
2022/06/09 08:22:23;;;;;;;19.52;10.05;;;;;;;16.60;100.00;156691.84;4949772;28;20089;-83
2022/06/09 08:24:49;;;;;;;22.38;10.35;;;;;;;16.46;100.00;156655.78;4948935;28;20402;-84
2022/06/09 08:27:15;;;;;;;18.55;9.98;;;;;;;16.49;100.00;156663.50;4933973;29;20039;-83
2022/06/09 08:29:41;;;;;;;17.10;10.45;;;;;;;16.63;100.00;156699.59;4937565;29;20043;-82
2022/06/09 08:32:07;;;;;;;19.63;10.40;;;;;;;16.63;100.00;156698.25;4945435;29;20066;-82
2022/06/09 08:34:34;;;;;;;19.13;9.68;;;;;;;16.66;100.00;156706.00;4963318;28;20042;-85
2022/06/09 08:37:00;;;;;;;19.00;9.93;;;;;;;16.67;100.00;156709.88;4947524;28;20039;-82
2022/06/09 08:39:26;;;;;;;21.40;9.60;;;;;;;16.51;100.00;156669.94;4947563;28;20047;-82
2022/06/09 08:42:13;;;;;;;18.48;9.48;;;;;;;16.68;100.00;156712.44;4934814;29;20050;-84
2022/06/09 08:44:57;;;;;;;12.73;8.93;;;;;;;16.66;100.00;156707.28;4942891;29;20107;-82
2022/06/09 08:47:38;;;;;;;18.50;9.05;;;;;;;16.69;100.00;156715.03;4929324;29;20034;-83
2022/06/09 08:50:12;;;;;;;19.88;8.75;;;;;;;16.82;100.00;156745.91;4947538;29;20035;-83
2022/06/09 08:53:12;;;;;;;17.13;9.35;;;;;;;17.07;100.00;156809.09;4938659;28;20502;-82
2022/06/09 08:55:42;;;;;;;14.00;8.85;;;;;;;17.27;100.00;156860.63;4934441;29;20051;-83
2022/06/09 08:58:08;;;;;;;16.73;9.00;;;;;;;17.41;100.00;156894.09;4909106;29;20055;-83
2022/06/09 09:00:39;;;;;;;18.67;8.73;;;;;;;17.60;100.00;156943.03;4944393;29;20414;-83
2022/06/09 09:03:15;;;;;;;18.67;8.07;;;;;;;17.89;100.00;157015.25;4927900;28;20030;-82
2022/06/09 09:06:00;;;;;;;12.98;8.10;;;;;;;18.05;100.00;157055.22;4932427;29;20039;-83
2022/06/09 09:08:26;;;;;;;16.25;6.90;;;;;;;18.33;100.00;157126.09;4949617;29;20039;-82
2022/06/09 09:11:17;;;;;;;13.88;7.18;;;;;;;18.41;100.00;157145.44;4951037;28;20042;-84
2022/06/09 09:13:48;;;;;;;10.85;6.63;;;;;;;18.21;100.00;157096.41;4953225;28;20441;-81
2022/06/09 09:16:35;;;;;;;14.60;6.73;;;;;;;18.17;100.00;157086.13;4948313;29;20050;-81
2022/06/09 09:19:27;;;;;;;15.65;6.60;;;;;;;18.07;100.00;157060.38;4934947;29;20360;-82
2022/06/09 09:22:27;;;;;;;16.52;5.82;;;;;;;18.22;100.00;157099.03;4944495;28;20502;-84
2022/06/09 09:25:05;;;;;;;17.30;6.63;;;;;;;18.31;100.00;157120.94;4932615;28;20063;-81
2022/06/09 09:27:44;;;;;;;11.13;6.90;;;;;;;18.11;100.00;157070.66;4941536;29;20047;-85
2022/06/09 09:30:19;;;;;;;10.82;6.00;;;;;;;18.40;100.00;157144.16;4954623;28;20047;-82
2022/06/09 09:32:51;;;;;;;11.23;6.15;;;;;;;18.42;100.00;157149.31;4937798;28;20117;-85
2022/06/09 09:35:23;;;;;;;13.25;6.05;;;;;;;18.43;100.00;157150.56;4956879;28;20045;-83
2022/06/09 09:37:53;;;;;;;8.45;5.55;;;;;;;18.47;100.00;157162.16;4933124;28;20039;-85
2022/06/09 09:40:24;;;;;;;11.13;5.32;;;;;;;18.35;100.00;157129.97;4952982;28;20513;-83
2022/06/09 09:42:54;;;;;;;12.82;5.07;;;;;;;18.33;100.00;157126.09;4951954;28;20035;-82
2022/06/09 09:45:47;;;;;;;14.43;4.93;;;;;;;18.37;100.00;157135.13;4944517;29;20027;-82
2022/06/09 09:48:15;;;;;;;8.80;4.70;;;;;;;18.68;100.00;157215.06;4928975;29;20070;-83
2022/06/09 09:50:56;;;;;;;9.80;5.30;;;;;;;18.78;100.00;157239.53;4936977;29;20063;-83
2022/06/09 09:53:26;;;;;;;10.13;5.50;;;;;;;18.95;100.00;157282.13;4945622;29;20094;-82
2022/06/09 09:55:59;;;;;;;8.63;5.10;;;;;;;18.89;100.00;157266.63;4920891;28;20049;-81
2022/06/09 09:58:41;;;;;;;;;;;;;;;18.97;100.00;157287.28;4934914;29;20122;-82
2022/06/09 10:01:16;;;;;;;10.07;5.90;;;;;;;18.65;100.00;157207.28;4936199;29;19922;-81
2022/06/09 10:09:53;;;;;;;8.23;4.88;;;;;;;18.39;100.00;157141.56;4941663;28;20040;-82
2022/06/09 10:12:22;;;;;;;8.65;4.97;;;;;;;18.99;100.00;157292.44;4931787;28;20046;-84
2022/06/09 10:14:50;;;;;;;8.98;4.78;;;;;;;19.13;100.00;157327.22;4941004;28;20047;-82
2022/06/09 10:17:48;;;;;;;11.00;4.72;;;;;;;18.97;100.00;157287.28;4948648;29;20038;-84
2022/06/09 10:20:14;;;;;;;6.78;4.57;;;;;;;18.72;100.00;157222.75;4932378;28;20043;-83
2022/06/09 10:22:44;;;;;;;8.70;4.93;;;;;;;18.70;100.00;157217.59;4948572;29;20059;-84
2022/06/09 10:25:13;;;;;;;9.10;4.72;;;;;;;18.95;100.00;157280.81;4947086;28;20030;-83
2022/06/09 10:27:41;;;;;;;7.53;5.35;;;;;;;19.00;100.00;157295.00;4937014;29;20139;-82
2022/06/09 10:30:22;;;;;;;10.00;4.65;;;;;;;18.86;100.00;157258.91;4949409;29;20046;-81
2022/06/09 10:33:04;;;;;;;7.60;4.85;;;;;;;19.15;100.00;157332.38;4940555;28;20039;-77
2022/06/09 10:35:35;;;;;;;8.88;4.60;;;;;;;19.77;100.00;157488.50;4944283;29;20036;-83
2022/06/09 10:38:16;;;;;;;7.85;4.80;;;;;;;20.20;97.61;157595.59;4943983;28;20099;-85
2022/06/09 10:40:50;;;;;;;6.13;4.47;;;;;;;20.19;97.06;157594.31;4937549;29;20074;-83
2022/06/09 10:43:35;;;;;;;9.95;5.03;;;;;;;19.94;93.34;157529.78;4935893;29;20047;-83
2022/06/09 10:46:07;;;;;;;9.20;4.15;;;;;;;19.83;99.69;157502.69;4956960;28;20094;-84
2022/06/09 10:55:18;;;;;;;6.30;4.15;;;;;;;20.03;96.02;157554.28;4923709;28;20047;-80
2022/06/09 10:58:15;;;;;;;7.10;4.28;;;;;;;19.97;97.40;157538.81;4947507;28;20048;-82
2022/06/09 11:00:45;;;;;;;8.95;4.50;;;;;;;20.21;98.86;157599.47;4965935;28;20031;-83
2022/06/09 11:03:40;;;;;;;7.90;4.13;;;;;;;20.47;94.97;157662.66;4933928;29;20118;-84
2022/06/09 11:06:29;;;;;;;7.05;4.03;;;;;;;20.68;94.64;157716.94;4944176;28;20043;-82
2022/06/09 11:09:17;;;;;;;7.40;4.50;;;;;;;21.13;87.56;157829.22;4940981;28;20043;-87
2022/06/09 11:12:05;;;;;;;7.72;4.00;;;;;;;21.15;89.97;157835.69;4950297;28;20067;-80
2022/06/09 11:14:52;;;;;;;7.40;4.53;;;;;;;20.48;87.55;157666.56;4941790;29;20112;-83
2022/06/09 11:17:34;;;;;;;8.30;4.95;;;;;;;19.79;98.31;157492.38;4940206;29;20039;-83
2022/06/09 11:20:11;;;;;;;10.13;4.32;;;;;;;19.08;98.57;157314.38;4949030;28;20059;-85
2022/06/09 11:22:56;;;;;;;5.40;4.30;;;;;;;18.88;98.28;157264.06;4958556;28;20063;-78
2022/06/09 11:25:43;;;;;;;5.05;4.03;;;;;;;18.92;96.36;157273.09;4931254;29;20569;-84
2022/06/09 11:28:22;;;;;;;5.47;4.20;;;;;;;18.87;93.87;157261.47;4929229;29;20071;-85
2022/06/09 11:31:06;;;;;;;7.90;3.80;;;;;;;19.08;98.58;157314.38;4934093;28;20047;-83
2022/06/09 11:33:54;;;;;;;5.57;3.95;;;;;;;19.83;97.65;157504.00;4954930;28;20043;-79
2022/06/09 11:36:33;;;;;;;5.60;3.40;;;;;;;20.36;94.54;157636.88;4961660;28;20043;-82
2022/06/09 11:39:36;;;;;;;6.30;4.80;;;;;;;20.30;94.47;157621.38;4938147;28;20481;-83
2022/06/09 11:42:20;;;;;;;5.45;4.05;;;;;;;20.19;93.11;157592.97;4950001;28;20368;-82
2022/06/09 11:44:51;;;;;;;7.43;4.75;;;;;;;20.57;89.43;157688.50;4929040;28;20040;-83
2022/06/09 11:47:19;;;;;;;5.40;4.07;;;;;;;20.60;85.07;157697.53;4938074;29;20055;-81
2022/06/09 11:49:52;;;;;;;8.57;3.75;;;;;;;20.50;87.78;157671.72;4958736;28;20047;-79